sensor_id;sensor_type;location;lat;lon;timestamp;P1;durP1;ratioP1;P2;durP2;ratioP2
48791;SDS011;34587;48.816;9.420;2023-05-16T04:15:58;1.38;;;1.27;;
48791;SDS011;34587;48.816;9.420;2023-05-16T04:18:23;2.08;;;1.98;;
48791;SDS011;34587;48.816;9.420;2023-05-16T04:20:49;1.60;;;1.50;;
48791;SDS011;34587;48.816;9.420;2023-05-16T04:23:14;2.75;;;1.60;;
48791;SDS011;34587;48.816;9.420;2023-05-16T04:25:40;2.08;;;1.75;;
48791;SDS011;34587;48.816;9.420;2023-05-16T04:28:06;9.07;;;3.50;;
48791;SDS011;34587;48.816;9.420;2023-05-16T04:30:31;1.77;;;1.60;;
48791;SDS011;34587;48.816;9.420;2023-05-16T04:32:57;1.70;;;1.58;;
48791;SDS011;34587;48.816;9.420;2023-05-16T04:35:23;1.85;;;1.75;;
48791;SDS011;34587;48.816;9.420;2023-05-16T04:37:48;2.10;;;1.92;;
48791;SDS011;34587;48.816;9.420;2023-05-16T04:40:14;3.13;;;2.30;;
48791;SDS011;34587;48.816;9.420;2023-05-16T04:42:39;2.53;;;1.75;;
48791;SDS011;34587;48.816;9.420;2023-05-16T04:45:05;2.55;;;2.22;;
48791;SDS011;34587;48.816;9.420;2023-05-16T04:47:34;2.30;;;1.60;;
48791;SDS011;34587;48.816;9.420;2023-05-16T04:50:00;3.40;;;2.40;;
48791;SDS011;34587;48.816;9.420;2023-05-16T04:52:26;1.80;;;1.58;;
48791;SDS011;34587;48.816;9.420;2023-05-16T04:54:51;2.28;;;2.10;;
48791;SDS011;34587;48.816;9.420;2023-05-16T04:57:17;2.55;;;2.38;;
48791;SDS011;34587;48.816;9.420;2023-05-16T04:59:42;4.28;;;2.15;;
48791;SDS011;34587;48.816;9.420;2023-05-16T05:02:08;2.53;;;2.25;;
48791;SDS011;34587;48.816;9.420;2023-05-16T05:04:33;1.13;;;1.13;;
48791;SDS011;34587;48.816;9.420;2023-05-16T05:06:58;2.80;;;2.42;;
48791;SDS011;34587;48.816;9.420;2023-05-16T05:09:24;1.48;;;1.40;;
48791;SDS011;34587;48.816;9.420;2023-05-16T05:11:49;1.70;;;1.60;;
48791;SDS011;34587;48.816;9.420;2023-05-16T05:14:15;3.78;;;2.92;;
48791;SDS011;34587;48.816;9.420;2023-05-16T05:16:40;7.50;;;4.28;;
48791;SDS011;34587;48.816;9.420;2023-05-16T05:19:05;6.97;;;4.38;;
48791;SDS011;34587;48.816;9.420;2023-05-16T05:21:32;4.95;;;2.22;;
48791;SDS011;34587;48.816;9.420;2023-05-16T05:23:58;6.63;;;3.40;;
48791;SDS011;34587;48.816;9.420;2023-05-16T05:26:23;4.88;;;2.42;;
48791;SDS011;34587;48.816;9.420;2023-05-16T05:28:50;1.85;;;1.75;;
48791;SDS011;34587;48.816;9.420;2023-05-16T05:31:15;2.38;;;1.95;;
48791;SDS011;34587;48.816;9.420;2023-05-16T05:33:41;3.03;;;2.70;;
48791;SDS011;34587;48.816;9.420;2023-05-16T05:36:06;4.32;;;3.92;;
48791;SDS011;34587;48.816;9.420;2023-05-16T05:38:32;9.43;;;4.22;;
48791;SDS011;34587;48.816;9.420;2023-05-16T05:40:57;3.97;;;3.60;;
48791;SDS011;34587;48.816;9.420;2023-05-16T05:43:22;7.60;;;4.82;;
48791;SDS011;34587;48.816;9.420;2023-05-16T05:45:48;3.28;;;2.90;;
48791;SDS011;34587;48.816;9.420;2023-05-16T05:48:13;5.47;;;4.20;;
48791;SDS011;34587;48.816;9.420;2023-05-16T05:50:38;9.40;;;4.25;;
48791;SDS011;34587;48.816;9.420;2023-05-16T05:53:04;11.40;;;4.82;;
48791;SDS011;34587;48.816;9.420;2023-05-16T05:55:29;7.53;;;4.82;;
48791;SDS011;34587;48.816;9.420;2023-05-16T05:57:55;5.47;;;4.05;;
48791;SDS011;34587;48.816;9.420;2023-05-16T06:00:20;7.57;;;4.18;;
48791;SDS011;34587;48.816;9.420;2023-05-16T06:02:46;5.72;;;4.03;;
48791;SDS011;34587;48.816;9.420;2023-05-16T06:05:12;6.20;;;4.40;;
48791;SDS011;34587;48.816;9.420;2023-05-16T06:07:38;9.48;;;4.65;;
48791;SDS011;34587;48.816;9.420;2023-05-16T06:10:03;6.28;;;5.00;;
48791;SDS011;34587;48.816;9.420;2023-05-16T06:12:29;8.02;;;4.43;;
48791;SDS011;34587;48.816;9.420;2023-05-16T06:14:55;6.53;;;5.07;;
48791;SDS011;34587;48.816;9.420;2023-05-16T06:17:20;9.45;;;5.22;;
48791;SDS011;34587;48.816;9.420;2023-05-16T06:19:46;8.65;;;5.20;;
48791;SDS011;34587;48.816;9.420;2023-05-16T06:22:11;7.47;;;5.03;;
48791;SDS011;34587;48.816;9.420;2023-05-16T06:24:37;7.90;;;4.45;;
48791;SDS011;34587;48.816;9.420;2023-05-16T06:27:02;8.23;;;3.78;;
48791;SDS011;34587;48.816;9.420;2023-05-16T06:29:27;6.38;;;4.35;;
48791;SDS011;34587;48.816;9.420;2023-05-16T06:31:52;3.95;;;2.90;;
48791;SDS011;34587;48.816;9.420;2023-05-16T06:34:18;7.72;;;3.97;;
48791;SDS011;34587;48.816;9.420;2023-05-16T06:36:44;8.38;;;5.35;;
48791;SDS011;34587;48.816;9.420;2023-05-16T06:39:09;5.65;;;4.05;;
48791;SDS011;34587;48.816;9.420;2023-05-16T06:41:35;9.98;;;5.28;;
48791;SDS011;34587;48.816;9.420;2023-05-16T06:44:00;6.65;;;4.13;;
48791;SDS011;34587;48.816;9.420;2023-05-16T06:46:25;10.68;;;3.95;;
48791;SDS011;34587;48.816;9.420;2023-05-16T06:48:51;7.20;;;4.72;;
48791;SDS011;34587;48.816;9.420;2023-05-16T06:51:16;7.25;;;4.25;;
48791;SDS011;34587;48.816;9.420;2023-05-16T06:53:41;6.20;;;3.85;;
48791;SDS011;34587;48.816;9.420;2023-05-16T06:56:07;4.97;;;3.63;;
48791;SDS011;34587;48.816;9.420;2023-05-16T06:58:33;6.78;;;3.28;;
48791;SDS011;34587;48.816;9.420;2023-05-16T07:00:58;5.00;;;4.50;;
48791;SDS011;34587;48.816;9.420;2023-05-16T07:03:23;5.65;;;3.53;;
48791;SDS011;34587;48.816;9.420;2023-05-16T07:05:49;4.07;;;2.97;;
48791;SDS011;34587;48.816;9.420;2023-05-16T07:08:16;4.55;;;2.92;;
48791;SDS011;34587;48.816;9.420;2023-05-16T07:10:42;4.32;;;3.92;;
48791;SDS011;34587;48.816;9.420;2023-05-16T07:13:07;5.45;;;3.25;;
48791;SDS011;34587;48.816;9.420;2023-05-16T07:15:32;5.93;;;3.58;;
48791;SDS011;34587;48.816;9.420;2023-05-16T07:17:57;11.00;;;3.53;;
48791;SDS011;34587;48.816;9.420;2023-05-16T07:20:23;4.85;;;3.88;;
48791;SDS011;34587;48.816;9.420;2023-05-16T07:22:48;7.63;;;3.90;;
48791;SDS011;34587;48.816;9.420;2023-05-16T07:25:14;6.10;;;2.60;;
48791;SDS011;34587;48.816;9.420;2023-05-16T07:27:40;6.35;;;3.28;;
48791;SDS011;34587;48.816;9.420;2023-05-16T07:30:15;4.18;;;2.97;;
48791;SDS011;34587;48.816;9.420;2023-05-16T07:32:40;4.03;;;3.28;;
48791;SDS011;34587;48.816;9.420;2023-05-16T07:35:06;3.50;;;2.63;;
48791;SDS011;34587;48.816;9.420;2023-05-16T07:37:32;4.10;;;2.05;;
48791;SDS011;34587;48.816;9.420;2023-05-16T07:39:57;5.35;;;3.20;;
48791;SDS011;34587;48.816;9.420;2023-05-16T07:42:23;4.05;;;2.42;;
48791;SDS011;34587;48.816;9.420;2023-05-16T07:44:48;3.65;;;3.30;;
48791;SDS011;34587;48.816;9.420;2023-05-16T07:47:14;2.65;;;2.45;;
48791;SDS011;34587;48.816;9.420;2023-05-16T07:49:39;3.40;;;2.42;;
48791;SDS011;34587;48.816;9.420;2023-05-16T07:52:05;3.35;;;2.03;;
48791;SDS011;34587;48.816;9.420;2023-05-16T07:54:31;3.03;;;1.67;;
48791;SDS011;34587;48.816;9.420;2023-05-16T07:56:57;3.85;;;2.95;;
48791;SDS011;34587;48.816;9.420;2023-05-16T07:59:22;7.70;;;2.85;;
48791;SDS011;34587;48.816;9.420;2023-05-16T08:01:48;2.97;;;1.83;;
48791;SDS011;34587;48.816;9.420;2023-05-16T08:04:13;2.72;;;2.20;;
48791;SDS011;34587;48.816;9.420;2023-05-16T08:06:39;2.35;;;2.15;;
48791;SDS011;34587;48.816;9.420;2023-05-16T08:09:04;3.47;;;1.70;;
48791;SDS011;34587;48.816;9.420;2023-05-16T08:11:29;3.10;;;2.38;;
48791;SDS011;34587;48.816;9.420;2023-05-16T08:13:55;2.85;;;2.00;;
48791;SDS011;34587;48.816;9.420;2023-05-16T08:16:20;3.15;;;2.78;;
48791;SDS011;34587;48.816;9.420;2023-05-16T08:18:45;2.78;;;2.17;;
48791;SDS011;34587;48.816;9.420;2023-05-16T08:21:11;2.78;;;2.35;;
48791;SDS011;34587;48.816;9.420;2023-05-16T08:23:38;2.30;;;2.10;;
48791;SDS011;34587;48.816;9.420;2023-05-16T08:26:03;2.90;;;1.95;;
48791;SDS011;34587;48.816;9.420;2023-05-16T08:28:29;3.95;;;2.40;;
48791;SDS011;34587;48.816;9.420;2023-05-16T08:30:54;8.98;;;1.80;;
48791;SDS011;34587;48.816;9.420;2023-05-16T08:33:20;1.77;;;1.67;;
48791;SDS011;34587;48.816;9.420;2023-05-16T08:35:45;3.30;;;1.88;;
48791;SDS011;34587;48.816;9.420;2023-05-16T08:38:12;7.00;;;2.35;;
48791;SDS011;34587;48.816;9.420;2023-05-16T08:40:38;4.78;;;2.10;;
48791;SDS011;34587;48.816;9.420;2023-05-16T08:43:04;3.03;;;1.85;;
48791;SDS011;34587;48.816;9.420;2023-05-16T08:45:30;2.15;;;1.95;;
48791;SDS011;34587;48.816;9.420;2023-05-16T08:47:56;4.15;;;2.00;;
48791;SDS011;34587;48.816;9.420;2023-05-16T08:50:22;2.97;;;2.70;;
48791;SDS011;34587;48.816;9.420;2023-05-16T08:52:50;2.45;;;2.25;;
48791;SDS011;34587;48.816;9.420;2023-05-16T08:55:16;4.50;;;2.95;;
48791;SDS011;34587;48.816;9.420;2023-05-16T08:57:44;2.38;;;2.00;;
48791;SDS011;34587;48.816;9.420;2023-05-16T09:00:10;2.25;;;2.05;;
48791;SDS011;34587;48.816;9.420;2023-05-16T09:02:37;4.47;;;3.60;;
48791;SDS011;34587;48.816;9.420;2023-05-16T09:05:04;3.67;;;2.53;;
48791;SDS011;34587;48.816;9.420;2023-05-16T09:07:32;7.18;;;2.70;;
48791;SDS011;34587;48.816;9.420;2023-05-16T09:09:57;6.35;;;4.22;;
48791;SDS011;34587;48.816;9.420;2023-05-16T09:12:23;10.15;;;2.28;;
48791;SDS011;34587;48.816;9.420;2023-05-16T09:14:48;3.15;;;2.85;;
48791;SDS011;34587;48.816;9.420;2023-05-16T09:17:13;2.42;;;2.22;;
48791;SDS011;34587;48.816;9.420;2023-05-16T09:19:42;3.78;;;3.03;;
48791;SDS011;34587;48.816;9.420;2023-05-16T09:22:09;3.13;;;2.20;;
48791;SDS011;34587;48.816;9.420;2023-05-16T09:24:39;3.42;;;2.38;;
48791;SDS011;34587;48.816;9.420;2023-05-16T09:27:09;2.70;;;2.08;;
48791;SDS011;34587;48.816;9.420;2023-05-16T09:29:45;1.92;;;1.75;;
48791;SDS011;34587;48.816;9.420;2023-05-16T09:32:14;4.20;;;3.05;;
48791;SDS011;34587;48.816;9.420;2023-05-16T09:34:44;3.22;;;2.92;;
48791;SDS011;34587;48.816;9.420;2023-05-16T09:37:12;4.35;;;3.53;;
48791;SDS011;34587;48.816;9.420;2023-05-16T09:39:39;2.80;;;2.60;;
48791;SDS011;34587;48.816;9.420;2023-05-16T09:42:10;3.63;;;2.33;;
48791;SDS011;34587;48.816;9.420;2023-05-16T09:44:37;4.78;;;3.13;;
48791;SDS011;34587;48.816;9.420;2023-05-16T09:47:03;4.22;;;2.63;;
48791;SDS011;34587;48.816;9.420;2023-05-16T09:49:29;2.42;;;2.17;;
48791;SDS011;34587;48.816;9.420;2023-05-16T09:51:54;4.75;;;2.83;;
48791;SDS011;34587;48.816;9.420;2023-05-16T09:54:30;3.17;;;2.75;;
48791;SDS011;34587;48.816;9.420;2023-05-16T09:56:56;2.83;;;2.50;;
48791;SDS011;34587;48.816;9.420;2023-05-16T09:59:22;4.53;;;3.10;;
48791;SDS011;34587;48.816;9.420;2023-05-16T10:01:47;4.32;;;2.58;;
48791;SDS011;34587;48.816;9.420;2023-05-16T10:04:14;7.43;;;2.90;;
48791;SDS011;34587;48.816;9.420;2023-05-16T10:06:40;7.13;;;2.45;;
48791;SDS011;34587;48.816;9.420;2023-05-16T10:09:09;2.45;;;2.25;;
48791;SDS011;34587;48.816;9.420;2023-05-16T10:11:37;4.00;;;3.47;;
48791;SDS011;34587;48.816;9.420;2023-05-16T10:14:05;4.30;;;2.25;;
48791;SDS011;34587;48.816;9.420;2023-05-16T10:16:31;4.40;;;3.65;;
48791;SDS011;34587;48.816;9.420;2023-05-16T10:18:57;8.23;;;3.72;;
48791;SDS011;34587;48.816;9.420;2023-05-16T10:21:25;5.68;;;3.47;;
48791;SDS011;34587;48.816;9.420;2023-05-16T10:23:52;5.47;;;3.53;;
48791;SDS011;34587;48.816;9.420;2023-05-16T10:26:21;2.90;;;2.38;;
48791;SDS011;34587;48.816;9.420;2023-05-16T10:28:47;4.75;;;2.55;;
48791;SDS011;34587;48.816;9.420;2023-05-16T10:31:14;2.42;;;2.22;;
48791;SDS011;34587;48.816;9.420;2023-05-16T10:33:39;3.65;;;2.95;;
48791;SDS011;34587;48.816;9.420;2023-05-16T10:36:05;3.72;;;2.83;;
48791;SDS011;34587;48.816;9.420;2023-05-16T10:38:33;5.50;;;3.53;;
48791;SDS011;34587;48.816;9.420;2023-05-16T10:41:00;3.75;;;3.17;;
48791;SDS011;34587;48.816;9.420;2023-05-16T10:43:26;6.60;;;3.55;;
48791;SDS011;34587;48.816;9.420;2023-05-16T10:45:55;6.35;;;3.42;;
48791;SDS011;34587;48.816;9.420;2023-05-16T10:48:28;11.75;;;4.00;;
48791;SDS011;34587;48.816;9.420;2023-05-16T10:50:54;8.35;;;4.10;;
48791;SDS011;34587;48.816;9.420;2023-05-16T11:01:21;6.05;;;2.97;;
48791;SDS011;34587;48.816;9.420;2023-05-16T11:06:25;6.80;;;3.75;;
48791;SDS011;34587;48.816;9.420;2023-05-16T11:09:07;10.30;;;3.38;;
48791;SDS011;34587;48.816;9.420;2023-05-16T11:19:27;3.63;;;2.70;;
48791;SDS011;34587;48.816;9.420;2023-05-16T11:27:22;3.50;;;2.67;;
48791;SDS011;34587;48.816;9.420;2023-05-16T11:32:12;4.65;;;2.47;;
48791;SDS011;34587;48.816;9.420;2023-05-16T11:34:42;3.42;;;3.10;;
48791;SDS011;34587;48.816;9.420;2023-05-16T11:37:09;3.58;;;2.42;;
48791;SDS011;34587;48.816;9.420;2023-05-16T11:39:36;5.57;;;3.60;;
48791;SDS011;34587;48.816;9.420;2023-05-16T11:42:01;2.22;;;2.03;;
48791;SDS011;34587;48.816;9.420;2023-05-16T11:44:27;7.50;;;2.70;;
48791;SDS011;34587;48.816;9.420;2023-05-16T11:46:52;6.45;;;4.95;;
48791;SDS011;34587;48.816;9.420;2023-05-16T11:49:17;9.70;;;4.45;;
48791;SDS011;34587;48.816;9.420;2023-05-16T11:51:43;4.40;;;2.60;;
48791;SDS011;34587;48.816;9.420;2023-05-16T11:54:09;5.30;;;3.30;;
48791;SDS011;34587;48.816;9.420;2023-05-16T11:56:35;4.13;;;3.08;;
48791;SDS011;34587;48.816;9.420;2023-05-16T11:59:01;2.33;;;2.05;;
48791;SDS011;34587;48.816;9.420;2023-05-16T12:01:33;3.42;;;3.13;;
48791;SDS011;34587;48.816;9.420;2023-05-16T12:04:01;2.30;;;2.10;;
48791;SDS011;34587;48.816;9.420;2023-05-16T12:06:28;4.00;;;2.67;;
48791;SDS011;34587;48.816;9.420;2023-05-16T12:08:55;3.95;;;3.08;;
48791;SDS011;34587;48.816;9.420;2023-05-16T12:11:21;5.75;;;3.10;;
48791;SDS011;34587;48.816;9.420;2023-05-16T12:13:47;2.47;;;2.28;;
48791;SDS011;34587;48.816;9.420;2023-05-16T12:16:13;8.70;;;4.00;;
48791;SDS011;34587;48.816;9.420;2023-05-16T12:18:38;2.83;;;2.33;;
48791;SDS011;34587;48.816;9.420;2023-05-16T12:21:04;4.93;;;2.70;;
48791;SDS011;34587;48.816;9.420;2023-05-16T12:23:31;4.53;;;2.25;;
48791;SDS011;34587;48.816;9.420;2023-05-16T12:25:57;3.30;;;1.73;;
48791;SDS011;34587;48.816;9.420;2023-05-16T12:28:25;4.00;;;1.75;;
48791;SDS011;34587;48.816;9.420;2023-05-16T12:30:55;2.13;;;2.00;;
48791;SDS011;34587;48.816;9.420;2023-05-16T12:33:21;2.08;;;1.90;;
48791;SDS011;34587;48.816;9.420;2023-05-16T12:35:46;1.88;;;1.77;;
48791;SDS011;34587;48.816;9.420;2023-05-16T12:38:12;1.42;;;1.33;;
48791;SDS011;34587;48.816;9.420;2023-05-16T12:40:39;2.25;;;2.03;;
48791;SDS011;34587;48.816;9.420;2023-05-16T12:43:15;3.10;;;1.55;;
48791;SDS011;34587;48.816;9.420;2023-05-16T12:46:18;2.75;;;1.65;;
48791;SDS011;34587;48.816;9.420;2023-05-16T12:48:36;0.90;;;0.90;;
48791;SDS011;34587;48.816;9.420;2023-05-16T12:51:13;2.17;;;1.98;;
48791;SDS011;34587;48.816;9.420;2023-05-16T12:53:43;1.45;;;1.35;;
48791;SDS011;34587;48.816;9.420;2023-05-16T12:56:10;1.30;;;1.20;;
48791;SDS011;34587;48.816;9.420;2023-05-16T12:58:36;2.25;;;1.48;;
48791;SDS011;34587;48.816;9.420;2023-05-16T13:01:02;3.40;;;1.77;;
48791;SDS011;34587;48.816;9.420;2023-05-16T13:03:28;1.98;;;1.70;;
48791;SDS011;34587;48.816;9.420;2023-05-16T13:05:54;1.17;;;1.08;;
48791;SDS011;34587;48.816;9.420;2023-05-16T13:08:19;3.03;;;1.45;;
48791;SDS011;34587;48.816;9.420;2023-05-16T13:10:45;1.25;;;0.95;;
48791;SDS011;34587;48.816;9.420;2023-05-16T13:13:10;1.17;;;0.98;;
48791;SDS011;34587;48.816;9.420;2023-05-16T13:15:35;1.95;;;1.38;;
48791;SDS011;34587;48.816;9.420;2023-05-16T13:18:02;1.45;;;1.35;;
48791;SDS011;34587;48.816;9.420;2023-05-16T13:20:27;2.58;;;1.27;;
48791;SDS011;34587;48.816;9.420;2023-05-16T13:22:53;5.10;;;0.88;;
48791;SDS011;34587;48.816;9.420;2023-05-16T13:25:19;1.20;;;1.02;;
48791;SDS011;34587;48.816;9.420;2023-05-16T13:27:45;1.10;;;1.00;;
48791;SDS011;34587;48.816;9.420;2023-05-16T13:30:10;0.85;;;0.80;;
48791;SDS011;34587;48.816;9.420;2023-05-16T13:32:35;1.20;;;1.10;;
48791;SDS011;34587;48.816;9.420;2023-05-16T13:35:01;0.88;;;0.88;;
48791;SDS011;34587;48.816;9.420;2023-05-16T13:37:26;3.53;;;1.95;;
48791;SDS011;34587;48.816;9.420;2023-05-16T13:39:51;0.95;;;0.93;;
48791;SDS011;34587;48.816;9.420;2023-05-16T13:42:18;1.10;;;0.98;;
48791;SDS011;34587;48.816;9.420;2023-05-16T13:44:44;0.95;;;0.70;;
48791;SDS011;34587;48.816;9.420;2023-05-16T13:47:09;0.70;;;0.70;;
48791;SDS011;34587;48.816;9.420;2023-05-16T13:49:35;0.95;;;0.95;;
48791;SDS011;34587;48.816;9.420;2023-05-16T13:52:01;3.03;;;1.25;;
48791;SDS011;34587;48.816;9.420;2023-05-16T13:54:26;0.80;;;0.80;;
48791;SDS011;34587;48.816;9.420;2023-05-16T13:56:52;1.20;;;1.10;;
48791;SDS011;34587;48.816;9.420;2023-05-16T13:59:18;0.68;;;0.68;;
48791;SDS011;34587;48.816;9.420;2023-05-16T14:01:43;0.80;;;0.80;;
48791;SDS011;34587;48.816;9.420;2023-05-16T14:04:08;0.70;;;0.70;;
48791;SDS011;34587;48.816;9.420;2023-05-16T14:06:34;0.60;;;0.60;;
48791;SDS011;34587;48.816;9.420;2023-05-16T14:08:59;2.30;;;1.38;;
48791;SDS011;34587;48.816;9.420;2023-05-16T14:11:24;1.00;;;1.00;;
48791;SDS011;34587;48.816;9.420;2023-05-16T14:13:54;0.98;;;0.90;;
48791;SDS011;34587;48.816;9.420;2023-05-16T14:16:19;0.73;;;0.70;;
48791;SDS011;34587;48.816;9.420;2023-05-16T14:18:44;0.80;;;0.80;;
48791;SDS011;34587;48.816;9.420;2023-05-16T14:21:09;1.50;;;0.90;;
48791;SDS011;34587;48.816;9.420;2023-05-16T14:23:35;0.82;;;0.82;;
48791;SDS011;34587;48.816;9.420;2023-05-16T14:26:00;0.60;;;0.60;;
48791;SDS011;34587;48.816;9.420;2023-05-16T14:28:26;2.10;;;0.68;;
48791;SDS011;34587;48.816;9.420;2023-05-16T14:30:52;1.20;;;0.95;;
48791;SDS011;34587;48.816;9.420;2023-05-16T14:33:18;2.50;;;0.57;;
48791;SDS011;34587;48.816;9.420;2023-05-16T14:35:43;0.70;;;0.70;;
48791;SDS011;34587;48.816;9.420;2023-05-16T14:38:09;0.65;;;0.65;;
48791;SDS011;34587;48.816;9.420;2023-05-16T14:40:34;0.77;;;0.60;;
48791;SDS011;34587;48.816;9.420;2023-05-16T14:42:59;0.80;;;0.80;;
48791;SDS011;34587;48.816;9.420;2023-05-16T14:45:27;1.10;;;0.60;;
48791;SDS011;34587;48.816;9.420;2023-05-16T14:47:53;0.85;;;0.85;;
48791;SDS011;34587;48.816;9.420;2023-05-16T14:50:18;0.55;;;0.55;;
48791;SDS011;34587;48.816;9.420;2023-05-16T14:52:43;0.60;;;0.60;;
48791;SDS011;34587;48.816;9.420;2023-05-16T14:55:09;0.73;;;0.73;;
48791;SDS011;34587;48.816;9.420;2023-05-16T14:57:34;0.65;;;0.47;;
48791;SDS011;34587;48.816;9.420;2023-05-16T15:00:00;0.85;;;0.85;;
48791;SDS011;34587;48.816;9.420;2023-05-16T15:02:25;1.05;;;0.98;;
48791;SDS011;34587;48.816;9.420;2023-05-16T15:04:50;0.82;;;0.82;;
48791;SDS011;34587;48.816;9.420;2023-05-16T15:07:16;0.40;;;0.40;;
48791;SDS011;34587;48.816;9.420;2023-05-16T15:09:42;1.25;;;0.68;;
48791;SDS011;34587;48.816;9.420;2023-05-16T15:12:07;0.50;;;0.43;;
48791;SDS011;34587;48.816;9.420;2023-05-16T15:14:33;0.82;;;0.82;;
48791;SDS011;34587;48.816;9.420;2023-05-16T15:16:58;0.73;;;0.73;;
48791;SDS011;34587;48.816;9.420;2023-05-16T15:19:23;1.40;;;1.10;;
48791;SDS011;34587;48.816;9.420;2023-05-16T15:21:49;6.13;;;1.02;;
48791;SDS011;34587;48.816;9.420;2023-05-16T15:24:14;0.73;;;0.70;;
48791;SDS011;34587;48.816;9.420;2023-05-16T15:26:41;1.00;;;0.70;;
48791;SDS011;34587;48.816;9.420;2023-05-16T15:29:07;0.55;;;0.55;;
48791;SDS011;34587;48.816;9.420;2023-05-16T15:31:32;0.47;;;0.47;;
48791;SDS011;34587;48.816;9.420;2023-05-16T15:33:58;0.65;;;0.65;;
48791;SDS011;34587;48.816;9.420;2023-05-16T15:36:23;0.70;;;0.70;;
48791;SDS011;34587;48.816;9.420;2023-05-16T15:38:48;0.52;;;0.52;;
48791;SDS011;34587;48.816;9.420;2023-05-16T15:41:13;0.35;;;0.35;;
48791;SDS011;34587;48.816;9.420;2023-05-16T15:43:40;0.40;;;0.40;;
48791;SDS011;34587;48.816;9.420;2023-05-16T15:46:06;1.10;;;1.00;;
48791;SDS011;34587;48.816;9.420;2023-05-16T15:48:33;5.57;;;1.00;;
48791;SDS011;34587;48.816;9.420;2023-05-16T15:50:58;1.23;;;0.63;;
48791;SDS011;34587;48.816;9.420;2023-05-16T15:53:23;0.50;;;0.50;;
48791;SDS011;34587;48.816;9.420;2023-05-16T15:55:49;0.95;;;0.50;;
48791;SDS011;34587;48.816;9.420;2023-05-16T15:58:15;1.10;;;0.93;;
48791;SDS011;34587;48.816;9.420;2023-05-16T16:00:40;0.50;;;0.50;;
48791;SDS011;34587;48.816;9.420;2023-05-16T16:03:06;0.57;;;0.57;;
48791;SDS011;34587;48.816;9.420;2023-05-16T16:05:33;0.50;;;0.50;;
48791;SDS011;34587;48.816;9.420;2023-05-16T16:07:59;1.13;;;1.05;;
48791;SDS011;34587;48.816;9.420;2023-05-16T16:10:24;0.60;;;0.60;;
48791;SDS011;34587;48.816;9.420;2023-05-16T16:12:57;1.65;;;0.82;;
48791;SDS011;34587;48.816;9.420;2023-05-16T16:15:24;0.75;;;0.75;;
48791;SDS011;34587;48.816;9.420;2023-05-16T16:17:49;3.30;;;0.50;;
48791;SDS011;34587;48.816;9.420;2023-05-16T16:20:15;0.43;;;0.43;;
48791;SDS011;34587;48.816;9.420;2023-05-16T16:22:40;1.80;;;0.65;;
48791;SDS011;34587;48.816;9.420;2023-05-16T16:25:05;1.15;;;1.10;;
48791;SDS011;34587;48.816;9.420;2023-05-16T16:27:31;0.70;;;0.70;;
48791;SDS011;34587;48.816;9.420;2023-05-16T16:29:56;0.90;;;0.68;;
48791;SDS011;34587;48.816;9.420;2023-05-16T16:32:22;0.68;;;0.68;;
48791;SDS011;34587;48.816;9.420;2023-05-16T16:34:47;0.80;;;0.77;;
48791;SDS011;34587;48.816;9.420;2023-05-16T16:37:13;1.65;;;1.17;;
48791;SDS011;34587;48.816;9.420;2023-05-16T16:39:38;0.60;;;0.60;;
48791;SDS011;34587;48.816;9.420;2023-05-16T16:42:03;0.40;;;0.40;;
48791;SDS011;34587;48.816;9.420;2023-05-16T16:44:29;0.90;;;0.90;;
48791;SDS011;34587;48.816;9.420;2023-05-16T16:46:54;2.20;;;1.00;;
48791;SDS011;34587;48.816;9.420;2023-05-16T16:49:20;0.50;;;0.50;;
48791;SDS011;34587;48.816;9.420;2023-05-16T16:51:45;2.50;;;1.17;;
48791;SDS011;34587;48.816;9.420;2023-05-16T16:54:11;0.50;;;0.50;;
48791;SDS011;34587;48.816;9.420;2023-05-16T16:56:37;0.47;;;0.47;;
48791;SDS011;34587;48.816;9.420;2023-05-16T16:59:02;4.38;;;0.50;;
48791;SDS011;34587;48.816;9.420;2023-05-16T17:01:27;1.65;;;0.82;;
48791;SDS011;34587;48.816;9.420;2023-05-16T17:03:55;1.10;;;0.90;;
48791;SDS011;34587;48.816;9.420;2023-05-16T17:06:21;0.82;;;0.82;;
48791;SDS011;34587;48.816;9.420;2023-05-16T17:08:47;0.50;;;0.50;;
48791;SDS011;34587;48.816;9.420;2023-05-16T17:11:13;2.10;;;1.30;;
48791;SDS011;34587;48.816;9.420;2023-05-16T17:13:46;1.65;;;0.80;;
48791;SDS011;34587;48.816;9.420;2023-05-16T17:16:12;1.52;;;1.35;;
48791;SDS011;34587;48.816;9.420;2023-05-16T17:18:37;1.50;;;0.85;;
48791;SDS011;34587;48.816;9.420;2023-05-16T17:21:04;0.65;;;0.65;;
48791;SDS011;34587;48.816;9.420;2023-05-16T17:23:30;0.75;;;0.50;;
48791;SDS011;34587;48.816;9.420;2023-05-16T17:25:56;0.70;;;0.70;;
48791;SDS011;34587;48.816;9.420;2023-05-16T17:28:22;1.05;;;0.95;;
48791;SDS011;34587;48.816;9.420;2023-05-16T17:30:47;0.57;;;0.57;;
48791;SDS011;34587;48.816;9.420;2023-05-16T17:33:12;3.03;;;1.15;;
48791;SDS011;34587;48.816;9.420;2023-05-16T17:35:38;0.60;;;0.60;;
48791;SDS011;34587;48.816;9.420;2023-05-16T17:38:04;2.08;;;1.15;;
48791;SDS011;34587;48.816;9.420;2023-05-16T17:40:29;0.88;;;0.80;;
48791;SDS011;34587;48.816;9.420;2023-05-16T17:42:55;0.60;;;0.60;;
48791;SDS011;34587;48.816;9.420;2023-05-16T17:45:21;1.00;;;0.90;;
48791;SDS011;34587;48.816;9.420;2023-05-16T17:47:46;1.73;;;0.88;;
48791;SDS011;34587;48.816;9.420;2023-05-16T17:50:12;0.40;;;0.40;;
48791;SDS011;34587;48.816;9.420;2023-05-16T17:52:38;1.33;;;0.60;;
48791;SDS011;34587;48.816;9.420;2023-05-16T17:55:04;12.18;;;1.42;;
48791;SDS011;34587;48.816;9.420;2023-05-16T17:57:31;2.13;;;0.80;;
48791;SDS011;34587;48.816;9.420;2023-05-16T17:59:58;2.95;;;0.63;;
48791;SDS011;34587;48.816;9.420;2023-05-16T18:02:23;0.68;;;0.68;;
48791;SDS011;34587;48.816;9.420;2023-05-16T18:04:49;0.60;;;0.60;;
48791;SDS011;34587;48.816;9.420;2023-05-16T18:07:15;0.38;;;0.38;;
48791;SDS011;34587;48.816;9.420;2023-05-16T18:09:41;0.60;;;0.60;;
48791;SDS011;34587;48.816;9.420;2023-05-16T18:12:06;1.67;;;0.80;;
48791;SDS011;34587;48.816;9.420;2023-05-16T18:14:33;2.83;;;0.95;;
48791;SDS011;34587;48.816;9.420;2023-05-16T18:16:58;1.83;;;1.67;;
48791;SDS011;34587;48.816;9.420;2023-05-16T18:19:24;0.93;;;0.93;;
48791;SDS011;34587;48.816;9.420;2023-05-16T18:21:49;0.60;;;0.60;;
48791;SDS011;34587;48.816;9.420;2023-05-16T18:24:15;3.22;;;2.25;;
48791;SDS011;34587;48.816;9.420;2023-05-16T18:26:41;3.95;;;0.80;;
48791;SDS011;34587;48.816;9.420;2023-05-16T18:29:08;1.02;;;0.90;;
48791;SDS011;34587;48.816;9.420;2023-05-16T18:31:34;0.73;;;0.73;;
48791;SDS011;34587;48.816;9.420;2023-05-16T18:34:02;0.90;;;0.82;;
48791;SDS011;34587;48.816;9.420;2023-05-16T18:36:27;0.90;;;0.65;;
48791;SDS011;34587;48.816;9.420;2023-05-16T18:38:53;2.22;;;0.57;;
48791;SDS011;34587;48.816;9.420;2023-05-16T18:41:18;2.35;;;1.92;;
48791;SDS011;34587;48.816;9.420;2023-05-16T18:43:43;0.90;;;0.73;;
48791;SDS011;34587;48.816;9.420;2023-05-16T18:46:09;0.75;;;0.60;;
48791;SDS011;34587;48.816;9.420;2023-05-16T18:48:34;1.20;;;0.70;;
48791;SDS011;34587;48.816;9.420;2023-05-16T18:51:00;2.88;;;0.90;;
48791;SDS011;34587;48.816;9.420;2023-05-16T18:53:25;0.50;;;0.50;;
48791;SDS011;34587;48.816;9.420;2023-05-16T18:55:50;0.90;;;0.90;;
48791;SDS011;34587;48.816;9.420;2023-05-16T18:58:16;0.65;;;0.60;;
48791;SDS011;34587;48.816;9.420;2023-05-16T19:00:41;1.55;;;0.90;;
48791;SDS011;34587;48.816;9.420;2023-05-16T19:03:07;4.43;;;1.33;;
48791;SDS011;34587;48.816;9.420;2023-05-16T19:05:33;0.98;;;0.90;;
48791;SDS011;34587;48.816;9.420;2023-05-16T19:07:59;1.38;;;1.23;;
48791;SDS011;34587;48.816;9.420;2023-05-16T19:10:24;0.70;;;0.70;;
48791;SDS011;34587;48.816;9.420;2023-05-16T19:12:50;0.40;;;0.40;;
48791;SDS011;34587;48.816;9.420;2023-05-16T19:15:15;0.50;;;0.50;;
48791;SDS011;34587;48.816;9.420;2023-05-16T19:17:40;0.50;;;0.50;;
48791;SDS011;34587;48.816;9.420;2023-05-16T19:20:06;1.48;;;0.90;;
48791;SDS011;34587;48.816;9.420;2023-05-16T19:22:35;0.40;;;0.40;;